createdAt,value
2018-05-16T00:00:35.160Z,16.00
2018-05-16T00:03:04.259Z,17.80
2018-05-16T00:05:34.156Z,15.03
2018-05-16T00:08:03.234Z,14.10
2018-05-16T00:10:32.319Z,19.23
2018-05-16T00:13:01.471Z,21.23
2018-05-16T00:15:30.648Z,17.93
2018-05-16T00:17:59.740Z,18.10
2018-05-16T00:20:28.869Z,15.50
2018-05-16T00:22:57.984Z,22.53
2018-05-16T00:25:27.098Z,15.60
2018-05-16T00:27:56.212Z,21.93
2018-05-16T00:30:25.296Z,22.13
2018-05-16T00:32:55.153Z,21.37
2018-05-16T00:35:24.261Z,23.47
2018-05-16T00:37:53.424Z,28.30
2018-05-16T00:40:22.532Z,18.40
2018-05-16T00:42:51.664Z,22.13
2018-05-16T00:45:21.512Z,22.57
2018-05-16T00:47:50.684Z,21.83
2018-05-16T00:50:19.848Z,26.93
2018-05-16T00:52:48.958Z,22.57
2018-05-16T00:55:18.132Z,23.30
2018-05-16T00:57:48.017Z,23.27
2018-05-16T01:00:17.104Z,21.17
2018-05-16T01:02:46.183Z,24.30
2018-05-16T01:05:16.030Z,17.90
2018-05-16T01:07:45.102Z,28.23
2018-05-16T01:10:14.263Z,18.77
2018-05-16T01:12:43.398Z,28.23
2018-05-16T01:15:12.500Z,22.50
2018-05-16T01:17:41.607Z,19.20
2018-05-16T01:20:10.696Z,32.87
2018-05-16T01:22:39.889Z,26.90
2018-05-16T01:25:09.764Z,22.57
2018-05-16T01:27:38.912Z,27.90
2018-05-16T01:30:07.995Z,23.30
2018-05-16T01:32:37.104Z,25.93
2018-05-16T01:35:06.247Z,25.60
2018-05-16T01:37:36.247Z,26.37
2018-05-16T01:40:05.397Z,33.23
2018-05-16T01:42:35.326Z,26.70
2018-05-16T01:45:05.199Z,26.60
2018-05-16T01:47:34.316Z,33.40
2018-05-16T01:50:03.459Z,28.23
2018-05-16T01:52:32.644Z,27.77
2018-05-16T01:55:01.728Z,35.27
2018-05-16T01:57:30.831Z,29.03
2018-05-16T01:59:59.906Z,33.23
2018-05-16T02:02:28.988Z,39.73
2018-05-16T02:04:58.078Z,30.73
2018-05-16T02:07:27.164Z,41.22
2018-05-16T02:09:56.247Z,32.07
2018-05-16T02:12:25.350Z,41.70
2018-05-16T02:14:54.551Z,39.20
2018-05-16T02:17:23.667Z,41.33
2018-05-16T02:19:52.790Z,37.10
2018-05-16T02:22:21.952Z,40.57
2018-05-16T02:24:51.035Z,40.63
2018-05-16T02:27:20.146Z,40.83
2018-05-16T02:29:50.051Z,38.80
2018-05-16T02:32:19.132Z,47.57
2018-05-16T02:34:48.212Z,43.43
2018-05-16T02:37:17.332Z,42.50
2018-05-16T02:39:46.446Z,48.63
2018-05-16T02:42:15.727Z,46.47
2018-05-16T02:44:45.604Z,44.67
2018-05-16T02:47:14.683Z,55.80
2018-05-16T02:49:43.763Z,47.00
2018-05-16T02:52:12.932Z,46.23
2018-05-16T02:54:42.039Z,42.17
2018-05-16T02:57:11.155Z,47.03
2018-05-16T02:59:40.324Z,46.50
2018-05-16T03:02:10.205Z,48.87
2018-05-16T03:04:39.341Z,42.80
2018-05-16T03:07:08.455Z,44.53
2018-05-16T03:09:39.900Z,40.97
2018-05-16T03:12:09.018Z,44.60
2018-05-16T03:14:51.097Z,48.40
2018-05-16T03:17:20.167Z,40.13
2018-05-16T03:19:50.100Z,42.93
2018-05-16T03:22:19.948Z,50.90
2018-05-16T03:24:49.027Z,46.60
2018-05-16T03:27:18.136Z,52.27
2018-05-16T03:29:47.276Z,40.37
2018-05-16T03:32:16.450Z,46.43
2018-05-16T03:34:45.523Z,48.50
2018-05-16T03:37:14.656Z,40.67
2018-05-16T03:39:43.772Z,47.67
2018-05-16T03:42:12.887Z,45.40
2018-05-16T03:44:42.001Z,43.27
2018-05-16T03:47:11.175Z,47.47
2018-05-16T03:49:40.285Z,41.33
2018-05-16T03:52:09.432Z,57.53
2018-05-16T03:54:38.580Z,45.07
2018-05-16T03:57:19.487Z,48.73
2018-05-16T04:00:06.522Z,48.70
2018-05-16T04:02:53.695Z,54.10
2018-05-16T04:05:22.775Z,45.47
2018-05-16T04:07:51.941Z,49.10
2018-05-16T04:10:21.816Z,52.03
2018-05-16T04:12:50.895Z,48.60
2018-05-16T04:15:21.159Z,48.17
2018-05-16T04:17:50.267Z,41.57
2018-05-16T04:20:19.374Z,46.43
2018-05-16T04:22:48.451Z,43.53
2018-05-16T04:25:18.359Z,43.77
2018-05-16T04:27:47.500Z,39.40
2018-05-16T04:30:16.650Z,48.00
2018-05-16T04:32:45.862Z,46.13
2018-05-16T04:35:14.921Z,41.93
2018-05-16T04:37:44.797Z,47.27
2018-05-16T04:40:13.874Z,42.23
2018-05-16T04:42:43.777Z,44.20
2018-05-16T04:45:13.697Z,46.37
2018-05-16T04:47:42.807Z,51.27
2018-05-16T04:50:11.920Z,49.83
2018-05-16T04:52:41.059Z,51.47
2018-05-16T04:55:10.963Z,39.97
2018-05-16T04:57:40.047Z,43.67
2018-05-16T05:00:09.155Z,44.17
2018-05-16T05:02:38.260Z,52.07
2018-05-16T05:05:07.407Z,44.83
2018-05-16T05:07:36.483Z,41.70
2018-05-16T05:10:05.627Z,46.73
2018-05-16T05:12:34.768Z,44.87
2018-05-16T05:15:04.651Z,39.07
2018-05-16T05:17:33.794Z,40.53
2018-05-16T05:20:03.678Z,48.33
2018-05-16T05:22:32.785Z,37.13
2018-05-16T05:25:01.867Z,43.03
2018-05-16T05:27:31.015Z,42.73
2018-05-16T05:30:00.134Z,47.40
2018-05-16T05:32:29.308Z,37.10
2018-05-16T05:34:58.446Z,44.37
2018-05-16T05:37:27.632Z,39.30
2018-05-16T05:39:56.712Z,40.57
2018-05-16T05:42:26.653Z,37.77
2018-05-16T05:44:56.568Z,38.00
2018-05-16T05:47:26.446Z,39.63
2018-05-16T05:49:55.659Z,38.37
2018-05-16T05:52:24.739Z,39.57
2018-05-16T05:54:53.853Z,34.20
2018-05-16T05:57:22.969Z,36.93
2018-05-16T05:59:52.113Z,40.43
2018-05-16T06:02:21.223Z,36.07
2018-05-16T06:04:50.393Z,34.97
2018-05-16T06:07:19.505Z,38.20
2018-05-16T06:09:48.583Z,38.87
2018-05-16T06:12:17.754Z,37.87
2018-05-16T06:14:46.871Z,31.60
2018-05-16T06:17:16.017Z,33.33
2018-05-16T06:19:45.118Z,29.53
2018-05-16T06:22:14.235Z,33.47
2018-05-16T06:24:43.343Z,32.73
2018-05-16T06:27:12.514Z,35.43
2018-05-16T06:29:41.564Z,41.20
2018-05-16T06:32:11.282Z,30.37
2018-05-16T06:34:40.400Z,32.70
2018-05-16T06:37:09.837Z,33.50
2018-05-16T06:39:39.740Z,35.13
2018-05-16T06:42:08.856Z,32.07
2018-05-16T06:44:37.967Z,33.17
2018-05-16T06:47:07.112Z,30.60
2018-05-16T06:49:36.190Z,27.13
2018-05-16T06:52:05.340Z,29.20
2018-05-16T06:54:34.455Z,29.60
2018-05-16T06:57:03.576Z,26.87
2018-05-16T06:59:32.684Z,25.07
2018-05-16T07:02:01.759Z,26.13
2018-05-16T07:04:31.663Z,27.30
2018-05-16T07:07:00.803Z,25.30
2018-05-16T07:09:30.704Z,26.23
2018-05-16T07:11:59.800Z,27.87
2018-05-16T07:14:28.936Z,28.57
2018-05-16T07:16:58.080Z,30.53
2018-05-16T07:19:27.264Z,29.33
2018-05-16T07:21:56.376Z,24.83
2018-05-16T07:24:25.521Z,26.50
2018-05-16T07:26:54.624Z,27.73
2018-05-16T07:29:23.764Z,26.10
2018-05-16T07:31:52.877Z,30.33
2018-05-16T07:34:21.999Z,29.20
2018-05-16T07:36:51.112Z,28.50
2018-05-16T07:39:20.224Z,24.13
2018-05-16T07:41:49.336Z,29.10
2018-05-16T07:44:19.244Z,29.10
2018-05-16T07:46:48.366Z,26.50
2018-05-16T07:49:17.468Z,24.00
2018-05-16T07:51:46.729Z,21.23
2018-05-16T07:54:16.571Z,23.70
2018-05-16T07:56:46.513Z,22.43
2018-05-16T07:59:15.621Z,31.57
2018-05-16T08:01:44.699Z,23.03
2018-05-16T08:04:13.774Z,20.10
2018-05-16T08:06:42.848Z,23.73
2018-05-16T08:09:12.750Z,24.43
2018-05-16T08:11:41.855Z,24.87
2018-05-16T08:14:11.024Z,21.27
2018-05-16T08:16:40.140Z,23.90
2018-05-16T08:19:09.251Z,18.00
2018-05-16T08:21:38.335Z,21.83
2018-05-16T08:24:07.475Z,15.87
2018-05-16T08:26:36.688Z,19.77
2018-05-16T08:29:05.861Z,17.20
2018-05-16T08:31:34.980Z,17.30
2018-05-16T08:34:04.082Z,15.70
2018-05-16T08:36:33.953Z,11.90
2018-05-16T08:39:03.087Z,16.03
2018-05-16T08:41:32.168Z,16.30
2018-05-16T08:44:01.274Z,16.30
2018-05-16T08:46:30.342Z,12.70
2018-05-16T08:49:00.416Z,15.30
2018-05-16T08:51:29.486Z,11.97
2018-05-16T08:53:59.395Z,11.30
2018-05-16T08:56:28.498Z,10.37
2018-05-16T08:58:57.601Z,15.30
2018-05-16T09:01:26.764Z,10.60
2018-05-16T09:03:56.669Z,11.67
2018-05-16T09:06:25.972Z,11.07
2018-05-16T09:08:55.060Z,10.20
2018-05-16T09:11:24.199Z,11.93
2018-05-16T09:13:53.386Z,9.27
2018-05-16T09:16:22.530Z,12.20
2018-05-16T09:18:52.440Z,8.93
2018-05-16T09:21:21.858Z,9.70
2018-05-16T09:23:50.963Z,10.63
2018-05-16T09:26:20.091Z,10.70
2018-05-16T09:28:49.936Z,13.37
2018-05-16T09:31:19.905Z,11.53
2018-05-16T09:33:48.983Z,9.83
2018-05-16T09:36:18.922Z,8.67
2018-05-16T09:38:48.524Z,8.70
2018-05-16T09:41:18.366Z,9.13
2018-05-16T09:43:48.264Z,8.93
2018-05-16T09:46:18.926Z,9.90
2018-05-16T09:48:49.439Z,7.43
2018-05-16T09:51:18.606Z,8.17
2018-05-16T09:53:47.775Z,9.57
2018-05-16T09:56:16.880Z,8.63
2018-05-16T09:58:46.007Z,6.27
2018-05-16T10:01:15.152Z,6.37
2018-05-16T10:03:44.255Z,5.80
2018-05-16T10:06:13.327Z,5.60
2018-05-16T10:08:42.395Z,5.17
2018-05-16T10:11:11.554Z,5.33
2018-05-16T10:13:40.639Z,5.17
2018-05-16T10:16:09.788Z,6.00
2018-05-16T10:18:39.652Z,5.70
2018-05-16T10:21:08.722Z,5.30
2018-05-16T10:23:37.882Z,6.20
2018-05-16T10:26:06.959Z,4.27
2018-05-16T10:28:36.069Z,5.40
2018-05-16T10:31:05.965Z,6.00
2018-05-16T10:33:35.060Z,5.50
2018-05-16T10:36:04.188Z,6.10
2018-05-16T10:38:33.696Z,5.80
2018-05-16T10:41:02.800Z,5.83
2018-05-16T10:43:31.947Z,5.00
2018-05-16T10:46:01.834Z,5.60
2018-05-16T10:48:30.928Z,6.23
2018-05-16T10:51:00.038Z,4.43
2018-05-16T10:53:29.115Z,4.33
2018-05-16T10:55:58.211Z,3.80
2018-05-16T10:58:27.282Z,4.50
2018-05-16T11:00:56.384Z,3.77
2018-05-16T11:03:25.492Z,4.20
2018-05-16T11:05:54.611Z,4.23
2018-05-16T11:08:23.713Z,4.97
2018-05-16T11:10:52.916Z,4.50
2018-05-16T11:13:22.019Z,4.33
2018-05-16T11:15:51.108Z,3.40
2018-05-16T11:18:20.977Z,4.00
2018-05-16T11:20:50.117Z,3.87
2018-05-16T11:23:19.244Z,3.80
2018-05-16T11:25:48.341Z,3.77
2018-05-16T11:28:18.528Z,2.60
2018-05-16T11:30:47.595Z,3.30
2018-05-16T11:33:16.715Z,3.17
2018-05-16T11:35:45.812Z,2.90
2018-05-16T11:38:14.919Z,3.57
2018-05-16T11:40:44.016Z,3.77
2018-05-16T11:43:13.160Z,3.90
2018-05-16T11:45:43.052Z,4.00
2018-05-16T11:48:12.128Z,3.97
2018-05-16T11:50:41.243Z,5.40
2018-05-16T11:53:10.345Z,4.97
2018-05-16T11:55:39.472Z,3.93
2018-05-16T11:58:08.534Z,4.87
2018-05-16T12:00:37.711Z,3.30
2018-05-16T12:03:07.093Z,4.17
2018-05-16T12:05:36.224Z,4.37
2018-05-16T12:08:05.356Z,3.90
2018-05-16T12:10:34.494Z,3.20
2018-05-16T12:13:03.558Z,4.70
2018-05-16T12:15:32.764Z,4.03
2018-05-16T12:18:02.193Z,3.43
2018-05-16T12:20:31.305Z,3.87
2018-05-16T12:23:00.449Z,3.57
2018-05-16T12:25:29.520Z,3.90
2018-05-16T12:27:58.612Z,3.27
2018-05-16T12:30:27.722Z,4.40
2018-05-16T12:32:57.547Z,4.03
2018-05-16T12:35:27.444Z,4.13
2018-05-16T12:37:56.526Z,4.43
2018-05-16T12:40:25.625Z,3.90
2018-05-16T12:43:12.701Z,4.10
2018-05-16T12:45:41.803Z,3.53
2018-05-16T12:48:11.007Z,3.30
2018-05-16T12:50:40.086Z,3.37
2018-05-16T12:53:09.212Z,3.37
2018-05-16T12:55:38.355Z,2.90
2018-05-16T12:58:07.418Z,3.17
2018-05-16T13:00:36.519Z,3.00
2018-05-16T13:03:05.613Z,3.90
2018-05-16T13:05:34.745Z,3.90
2018-05-16T13:08:03.947Z,3.30
2018-05-16T13:10:33.078Z,4.37
2018-05-16T13:13:02.214Z,3.97
2018-05-16T13:15:31.305Z,4.50
2018-05-16T13:18:01.355Z,3.40
2018-05-16T13:20:30.468Z,4.37
2018-05-16T13:22:59.574Z,2.97
2018-05-16T13:25:29.073Z,3.50
2018-05-16T13:27:58.184Z,3.30
2018-05-16T13:30:27.339Z,3.40
2018-05-16T13:32:56.438Z,2.83
2018-05-16T13:35:25.843Z,3.20
2018-05-16T13:37:54.957Z,2.70
2018-05-16T13:40:24.056Z,2.90
2018-05-16T13:42:53.119Z,3.10
2018-05-16T13:45:23.032Z,2.77
2018-05-16T13:47:52.937Z,3.30
2018-05-16T13:50:22.068Z,2.73
2018-05-16T13:52:51.251Z,2.57
2018-05-16T13:55:20.351Z,2.90
2018-05-16T13:57:49.424Z,2.77
2018-05-16T14:00:18.559Z,2.90
2018-05-16T14:02:47.652Z,2.60
2018-05-16T14:05:16.817Z,3.83
2018-05-16T14:07:45.920Z,3.03
2018-05-16T14:10:15.447Z,2.90
2018-05-16T14:12:44.581Z,2.33
2018-05-16T14:15:14.797Z,2.90
2018-05-16T14:17:43.986Z,2.77
2018-05-16T14:20:13.131Z,2.53
2018-05-16T14:22:42.736Z,3.20
2018-05-16T14:25:11.831Z,2.43
2018-05-16T14:27:41.000Z,2.73
2018-05-16T14:30:10.909Z,3.43
2018-05-16T14:32:39.958Z,3.00
2018-05-16T14:35:09.023Z,3.00
2018-05-16T14:37:38.116Z,3.63
2018-05-16T14:40:07.187Z,3.23
2018-05-16T14:42:36.432Z,3.67
2018-05-16T14:45:05.495Z,3.33
2018-05-16T14:47:34.598Z,3.37
2018-05-16T14:50:04.493Z,2.67
2018-05-16T14:52:34.300Z,3.40
2018-05-16T14:55:03.409Z,3.00
2018-05-16T14:57:32.508Z,2.70
2018-05-16T15:00:01.580Z,3.40
2018-05-16T15:02:31.403Z,3.60
2018-05-16T15:05:00.496Z,3.67
2018-05-16T15:07:30.401Z,4.80
2018-05-16T15:09:59.549Z,3.40
2018-05-16T15:12:29.421Z,3.77
2018-05-16T15:14:58.592Z,4.67
2018-05-16T15:17:28.835Z,4.47
2018-05-16T15:19:58.772Z,4.20
2018-05-16T15:22:27.961Z,4.10
2018-05-16T15:24:57.067Z,4.40
2018-05-16T15:27:27.003Z,3.43
2018-05-16T15:29:56.091Z,3.50
2018-05-16T15:32:25.260Z,4.50
2018-05-16T15:34:54.416Z,3.73
2018-05-16T15:37:23.589Z,3.70
2018-05-16T15:39:52.697Z,4.67
2018-05-16T15:42:21.861Z,3.90
2018-05-16T15:44:50.936Z,4.20
2018-05-16T15:47:20.007Z,3.40
2018-05-16T15:49:49.830Z,3.30
2018-05-16T15:52:19.799Z,3.77
2018-05-16T15:54:48.904Z,3.80
2018-05-16T15:57:17.974Z,3.87
2018-05-16T15:59:47.173Z,3.80
2018-05-16T16:02:16.198Z,3.13
2018-05-16T16:04:45.352Z,3.60
2018-05-16T16:07:14.416Z,3.27
2018-05-16T16:09:43.586Z,2.97
2018-05-16T16:12:12.655Z,2.80
2018-05-16T16:14:41.751Z,3.23
2018-05-16T16:17:11.647Z,4.53
2018-05-16T16:19:40.740Z,3.57
2018-05-16T16:22:09.867Z,4.40
2018-05-16T16:24:39.023Z,3.73
2018-05-16T16:27:08.916Z,3.90
2018-05-16T16:29:38.033Z,3.40
2018-05-16T16:32:07.156Z,3.07
2018-05-16T16:34:36.337Z,3.80
2018-05-16T16:37:05.463Z,3.73
2018-05-16T16:39:34.563Z,3.63
2018-05-16T16:42:03.804Z,3.67
2018-05-16T16:44:32.872Z,3.80
2018-05-16T16:47:01.943Z,3.40
2018-05-16T16:49:31.835Z,3.57
2018-05-16T16:52:00.906Z,3.40
2018-05-16T16:54:30.002Z,5.73
2018-05-16T16:56:59.257Z,3.53
2018-05-16T16:59:28.384Z,3.50
2018-05-16T17:01:57.458Z,2.90
2018-05-16T17:04:27.332Z,2.90
2018-05-16T17:06:56.462Z,3.40
2018-05-16T17:09:26.495Z,3.10
2018-05-16T17:11:55.588Z,3.07
2018-05-16T17:14:27.949Z,3.77
2018-05-16T17:16:57.093Z,4.20
2018-05-16T17:19:26.955Z,4.00
2018-05-16T17:21:56.016Z,3.97
2018-05-16T17:24:25.180Z,3.50
2018-05-16T17:26:54.384Z,3.17
2018-05-16T17:29:24.182Z,3.30
2018-05-16T17:31:54.172Z,3.70
2018-05-16T17:34:23.333Z,3.30
2018-05-16T17:36:52.716Z,4.57
2018-05-16T17:39:21.855Z,3.80
2018-05-16T17:41:50.960Z,3.40
2018-05-16T17:44:20.111Z,4.20
2018-05-16T17:46:49.176Z,4.90
2018-05-16T17:49:18.249Z,4.20
2018-05-16T17:51:47.328Z,4.30
2018-05-16T17:54:16.495Z,3.73
2018-05-16T17:56:45.632Z,4.43
2018-05-16T17:59:15.550Z,4.50
2018-05-16T18:01:44.639Z,4.27
2018-05-16T18:04:13.736Z,3.63
2018-05-16T18:06:42.835Z,4.10
2018-05-16T18:09:11.902Z,3.60
2018-05-16T18:11:41.816Z,5.60
2018-05-16T18:14:28.920Z,4.00
2018-05-16T18:17:15.997Z,3.70
2018-05-16T18:19:45.883Z,4.93
2018-05-16T18:22:15.024Z,5.20
2018-05-16T18:24:44.188Z,4.73
2018-05-16T18:27:13.316Z,5.07
2018-05-16T18:29:42.417Z,4.63
2018-05-16T18:32:11.545Z,6.63
2018-05-16T18:34:40.713Z,7.13
2018-05-16T18:37:09.879Z,5.63
2018-05-16T18:39:39.023Z,5.30
2018-05-16T18:42:08.134Z,4.87
2018-05-16T18:44:37.244Z,6.67
2018-05-16T18:47:07.110Z,7.27
2018-05-16T18:49:36.243Z,6.93
2018-05-16T18:52:05.345Z,6.90
2018-05-16T18:54:35.341Z,5.63
2018-05-16T18:57:04.445Z,5.20
2018-05-16T18:59:33.552Z,5.17
2018-05-16T19:02:02.694Z,5.30
2018-05-16T19:04:31.862Z,4.40
2018-05-16T19:07:01.819Z,4.50
2018-05-16T19:09:30.932Z,5.10
2018-05-16T19:12:00.105Z,4.53
2018-05-16T19:14:29.190Z,4.47
2018-05-16T19:16:58.348Z,21.30
2018-05-16T19:19:27.442Z,21.00
2018-05-16T19:21:57.353Z,13.13
2018-05-16T19:24:26.436Z,8.50
2018-05-16T19:26:55.585Z,14.20
2018-05-16T19:29:24.618Z,6.70
2018-05-16T19:31:53.752Z,5.30
2018-05-16T19:34:22.852Z,4.53
2018-05-16T19:36:51.921Z,3.93
2018-05-16T19:39:21.825Z,6.50
2018-05-16T19:41:50.950Z,6.10
2018-05-16T19:44:20.915Z,5.43
2018-05-16T19:46:49.996Z,5.33
2018-05-16T19:49:19.098Z,4.87
2018-05-16T19:51:48.214Z,4.80
2018-05-16T19:54:17.319Z,5.13
2018-05-16T19:56:47.209Z,4.77
2018-05-16T19:59:16.313Z,4.33
2018-05-16T20:01:45.392Z,5.70
2018-05-16T20:04:15.240Z,4.70
2018-05-16T20:06:44.374Z,4.37
2018-05-16T20:09:13.493Z,6.13
2018-05-16T20:11:42.652Z,4.73
2018-05-16T20:14:11.725Z,5.30
2018-05-16T20:16:40.893Z,7.93
2018-05-16T20:19:10.077Z,5.83
2018-05-16T20:21:39.186Z,4.93
2018-05-16T20:24:08.260Z,4.07
2018-05-16T20:26:37.333Z,4.63
2018-05-16T20:29:07.261Z,8.53
2018-05-16T20:31:36.623Z,8.97
2018-05-16T20:34:05.922Z,5.70
2018-05-16T20:36:35.026Z,5.87
2018-05-16T20:39:04.217Z,4.73
2018-05-16T20:41:33.377Z,5.17
2018-05-16T20:44:02.509Z,5.53
2018-05-16T20:46:32.403Z,5.40
2018-05-16T20:49:01.629Z,5.17
2018-05-16T20:51:30.727Z,7.93
2018-05-16T20:53:59.791Z,5.50
2018-05-16T20:56:29.623Z,4.93
2018-05-16T20:58:59.489Z,5.10
2018-05-16T21:01:28.660Z,6.70
2018-05-16T21:03:58.571Z,6.10
2018-05-16T21:06:27.730Z,6.00
2018-05-16T21:08:56.832Z,5.87
2018-05-16T21:11:25.928Z,6.00
2018-05-16T21:13:55.759Z,5.20
2018-05-16T21:16:25.644Z,5.90
2018-05-16T21:18:55.004Z,5.63
2018-05-16T21:21:24.163Z,6.90
2018-05-16T21:23:53.310Z,5.50
2018-05-16T21:26:23.183Z,5.70
2018-05-16T21:28:52.347Z,8.83
2018-05-16T21:31:22.419Z,5.30
2018-05-16T21:33:51.555Z,5.23
2018-05-16T21:36:20.625Z,6.13
2018-05-16T21:38:49.785Z,6.27
2018-05-16T21:41:18.851Z,5.83
2018-05-16T21:43:48.834Z,6.37
2018-05-16T21:46:18.928Z,6.97
2018-05-16T21:48:48.092Z,6.67
2018-05-16T21:51:18.664Z,6.47
2018-05-16T21:53:48.554Z,6.80
2018-05-16T21:56:18.444Z,6.30
2018-05-16T21:58:47.777Z,6.80
2018-05-16T22:01:16.848Z,6.23
2018-05-16T22:03:46.764Z,6.37
2018-05-16T22:06:17.628Z,11.83
2018-05-16T22:08:47.459Z,6.80
2018-05-16T22:11:17.920Z,6.30
2018-05-16T22:13:46.990Z,7.40
2018-05-16T22:16:17.020Z,7.07
2018-05-16T22:18:46.298Z,6.50
2018-05-16T22:21:16.236Z,6.80
2018-05-16T22:23:45.340Z,6.80
2018-05-16T22:26:14.444Z,9.50
2018-05-16T22:28:43.560Z,7.10
2018-05-16T22:31:18.524Z,6.50
2018-05-16T22:33:53.340Z,6.60
2018-05-16T22:36:28.148Z,7.10
2018-05-16T22:39:05.221Z,6.20
2018-05-16T22:41:40.164Z,6.43
2018-05-16T22:44:25.968Z,6.87
2018-05-16T22:46:55.264Z,8.03
2018-05-16T22:49:25.350Z,10.40
2018-05-16T22:51:55.413Z,7.50
2018-05-16T22:54:24.511Z,7.27
2018-05-16T22:56:53.574Z,6.13
2018-05-16T22:59:22.746Z,6.17
2018-05-16T23:01:51.796Z,6.97
2018-05-16T23:04:21.710Z,10.87
2018-05-16T23:06:50.831Z,5.43
2018-05-16T23:09:20.722Z,6.03
2018-05-16T23:11:50.024Z,6.27
2018-05-16T23:14:19.274Z,5.80
2018-05-16T23:16:48.446Z,7.43
2018-05-16T23:19:17.514Z,5.83
2018-05-16T23:21:46.639Z,6.73
2018-05-16T23:24:16.507Z,5.53
2018-05-16T23:26:46.148Z,6.80
2018-05-16T23:29:15.335Z,5.67
2018-05-16T23:31:44.436Z,4.97
2018-05-16T23:34:13.498Z,6.70
2018-05-16T23:36:44.105Z,6.47
2018-05-16T23:39:13.244Z,6.47
2018-05-16T23:41:42.354Z,5.27
2018-05-16T23:44:11.512Z,6.93
2018-05-16T23:46:40.634Z,5.63
2018-05-16T23:49:09.731Z,4.90
2018-05-16T23:51:39.600Z,5.47
2018-05-16T23:54:09.039Z,9.57
2018-05-16T23:56:38.218Z,5.50
2018-05-16T23:59:07.347Z,5.47
